createdAt,value
2019-04-20T00:00:02.702Z,0.00
2019-04-20T00:00:58.539Z,0.00
2019-04-20T00:02:03.562Z,0.00
2019-04-20T00:02:59.528Z,0.00
2019-04-20T00:03:56.139Z,0.00
2019-04-20T00:04:55.133Z,0.00
2019-04-20T00:07:46.551Z,0.00
2019-04-20T00:08:51.251Z,0.00
2019-04-20T00:09:56.595Z,0.00
2019-04-20T00:11:02.592Z,0.00
2019-04-20T00:12:00.132Z,0.00
2019-04-20T00:13:03.813Z,0.00
2019-04-20T00:13:59.341Z,0.00
2019-04-20T00:14:56.586Z,0.00
2019-04-20T00:15:49.343Z,0.00
2019-04-20T00:16:53.047Z,0.00
2019-04-20T00:17:58.393Z,0.00
2019-04-20T00:18:54.832Z,0.00
2019-04-20T00:19:53.828Z,0.00
2019-04-20T00:20:51.362Z,0.00
2019-04-20T00:21:59.838Z,0.00
2019-04-20T00:22:54.085Z,0.00
2019-04-20T00:23:51.374Z,0.00
2019-04-20T00:24:55.364Z,0.00
2019-04-20T00:26:00.495Z,0.00
2019-04-20T00:27:15.973Z,0.00
2019-04-20T00:29:25.357Z,0.00
2019-04-20T00:29:36.722Z,0.00
2019-04-20T00:30:39.203Z,0.00
2019-04-20T00:31:29.632Z,0.00
2019-04-20T00:33:56.162Z,0.00
2019-04-20T00:34:26.404Z,0.00
2019-04-20T00:35:18.838Z,0.00
2019-04-20T00:36:18.580Z,0.00
2019-04-20T00:37:21.161Z,0.00
2019-04-20T00:38:21.153Z,0.00
2019-04-20T00:40:37.267Z,0.00
2019-04-20T00:40:43.437Z,0.00
2019-04-20T00:41:49.019Z,0.00
2019-04-20T00:42:48.834Z,0.00
2019-04-20T00:43:47.156Z,0.00
2019-04-20T00:44:44.681Z,0.00
2019-04-20T00:45:47.668Z,0.00
2019-04-20T00:46:56.824Z,0.00
2019-04-20T00:47:54.615Z,0.00
2019-04-20T00:48:50.476Z,0.00
2019-04-20T00:49:52.291Z,0.00
2019-04-20T00:51:00.911Z,0.00
2019-04-20T00:52:11.217Z,0.00
2019-04-20T00:52:54.240Z,0.00
2019-04-20T00:53:47.715Z,0.00
2019-04-20T00:56:09.867Z,0.00
2019-04-20T00:57:20.484Z,0.00
2019-04-20T00:58:23.611Z,0.00
2019-04-20T00:59:20.074Z,0.00
2019-04-20T01:00:26.819Z,0.00
2019-04-20T01:01:31.184Z,0.00
2019-04-20T01:02:20.754Z,0.00
2019-04-20T01:03:30.537Z,0.00
2019-04-20T01:04:25.484Z,0.00
2019-04-20T01:05:23.137Z,0.00
2019-04-20T01:06:28.914Z,0.00
2019-04-20T01:08:38.021Z,0.00
2019-04-20T01:09:13.986Z,0.00
2019-04-20T01:11:39.470Z,0.00
2019-04-20T01:12:12.658Z,0.00
2019-04-20T01:13:19.826Z,0.00
2019-04-20T01:14:12.302Z,0.00
2019-04-20T01:15:23.033Z,0.00
2019-04-20T01:16:22.505Z,0.00
2019-04-20T01:17:11.927Z,0.00
2019-04-20T01:18:13.833Z,0.00
2019-04-20T01:19:11.570Z,0.00
2019-04-20T01:21:38.423Z,0.00
2019-04-20T01:22:14.376Z,0.00
2019-04-20T01:23:15.261Z,0.00
2019-04-20T01:24:20.060Z,0.00
2019-04-20T01:25:18.250Z,0.00
2019-04-20T01:26:15.570Z,0.00
2019-04-20T01:27:25.868Z,0.00
2019-04-20T01:28:31.061Z,0.00
2019-04-20T01:29:21.843Z,0.00
2019-04-20T01:30:21.961Z,0.00
2019-04-20T01:31:18.618Z,0.00
2019-04-20T01:32:27.725Z,0.00
2019-04-20T01:33:25.890Z,0.00
2019-04-20T01:34:27.873Z,0.00
2019-04-20T01:42:34.129Z,0.00
2019-04-20T01:43:33.708Z,0.00
2019-04-20T01:44:35.871Z,0.00
2019-04-20T01:45:35.662Z,0.00
2019-04-20T01:46:32.196Z,0.00
2019-04-20T01:47:38.869Z,0.00
2019-04-20T01:48:38.682Z,0.00
2019-04-20T01:49:40.260Z,0.00
2019-04-20T01:50:36.252Z,0.00
2019-04-20T01:51:42.917Z,0.00
2019-04-20T01:52:44.039Z,0.00
2019-04-20T01:54:21.253Z,0.00
2019-04-20T01:58:50.615Z,0.00
2019-04-20T02:00:21.067Z,0.00
2019-04-20T02:00:37.275Z,0.00
2019-04-20T02:09:03.191Z,0.00
2019-04-20T02:11:32.722Z,0.00
2019-04-20T02:12:31.150Z,0.00
2019-04-20T02:13:40.160Z,0.00
2019-04-20T02:14:35.884Z,0.00
2019-04-20T02:19:52.668Z,0.00
2019-04-20T02:20:58.086Z,0.00
2019-04-20T02:21:55.412Z,0.00
2019-04-20T02:24:12.534Z,0.00
2019-04-20T02:24:47.030Z,0.00
2019-04-20T02:25:35.676Z,0.00
2019-04-20T02:26:36.662Z,0.00
2019-04-20T02:30:04.455Z,0.00
2019-04-20T02:31:59.439Z,0.00
2019-04-20T02:33:27.479Z,0.00
2019-04-20T02:34:23.816Z,0.00
2019-04-20T02:35:18.289Z,0.00
2019-04-20T02:36:33.687Z,0.00
2019-04-20T02:38:36.510Z,0.00
2019-04-20T02:39:32.943Z,0.00
2019-04-20T02:40:19.196Z,0.00
2019-04-20T02:41:21.466Z,0.00
2019-04-20T02:44:23.940Z,0.00
2019-04-20T02:45:27.695Z,0.00
2019-04-20T02:46:26.535Z,0.00
2019-04-20T02:47:21.552Z,0.00
2019-04-20T02:48:15.904Z,0.00
2019-04-20T02:51:22.915Z,0.00
2019-04-20T02:52:50.596Z,0.00
2019-04-20T02:55:26.890Z,0.00
2019-04-20T02:56:44.625Z,0.00
2019-04-20T02:58:34.706Z,0.00
2019-04-20T02:59:53.348Z,0.00
2019-04-20T03:00:24.054Z,0.00
2019-04-20T03:01:20.483Z,0.00
2019-04-20T03:02:17.319Z,0.00
2019-04-20T03:03:11.051Z,0.00
2019-04-20T03:04:03.446Z,0.00
2019-04-20T03:05:12.192Z,0.00
2019-04-20T03:06:14.773Z,0.00
2019-04-20T03:07:15.270Z,0.00
2019-04-20T03:08:17.639Z,0.00
2019-04-20T03:09:24.308Z,0.00
2019-04-20T03:10:17.963Z,0.00
2019-04-20T03:11:21.097Z,0.00
2019-04-20T03:12:25.714Z,0.00
2019-04-20T03:13:19.809Z,0.00
2019-04-20T03:14:20.053Z,0.00
2019-04-20T03:15:22.599Z,0.00
2019-04-20T03:16:22.130Z,0.00
2019-04-20T03:17:26.057Z,0.00
2019-04-20T03:18:21.349Z,0.00
2019-04-20T03:19:17.357Z,0.00
2019-04-20T03:20:24.191Z,0.00
2019-04-20T03:21:24.744Z,0.00
2019-04-20T03:22:21.346Z,0.00
2019-04-20T03:23:29.717Z,0.00
2019-04-20T03:25:30.061Z,0.00
2019-04-20T03:26:27.751Z,0.00
2019-04-20T03:27:16.137Z,0.00
2019-04-20T03:28:18.229Z,0.00
2019-04-20T03:29:12.801Z,0.00
2019-04-20T03:33:35.123Z,0.00
2019-04-20T03:34:51.544Z,0.00
2019-04-20T03:35:25.051Z,0.00
2019-04-20T03:36:25.200Z,0.00
2019-04-20T03:37:26.952Z,0.00
2019-04-20T03:38:23.092Z,4.00
2019-04-20T03:39:17.640Z,4.00
2019-04-20T03:40:12.558Z,0.00
2019-04-20T03:41:18.308Z,0.00
2019-04-20T03:42:00.441Z,4.00
2019-04-20T03:42:59.094Z,4.00
2019-04-20T03:44:04.108Z,4.00
2019-04-20T03:45:06.088Z,4.00
2019-04-20T03:46:05.583Z,4.00
2019-04-20T03:47:04.566Z,4.00
2019-04-20T03:48:16.092Z,4.00
2019-04-20T03:50:22.440Z,8.00
2019-04-20T03:51:26.001Z,12.00
2019-04-20T03:52:24.159Z,8.00
2019-04-20T03:53:19.542Z,16.00
2019-04-20T03:54:13.790Z,16.00
2019-04-20T03:55:16.118Z,20.00
2019-04-20T03:56:22.774Z,24.00
2019-04-20T03:57:22.373Z,24.00
2019-04-20T03:58:18.528Z,28.00
2019-04-20T03:59:11.318Z,36.00
2019-04-20T04:00:16.284Z,40.00
2019-04-20T04:01:19.882Z,48.00
2019-04-20T04:02:29.715Z,60.00
2019-04-20T04:03:29.300Z,68.00
2019-04-20T04:04:21.497Z,76.00
2019-04-20T04:05:17.690Z,88.00
2019-04-20T04:06:11.814Z,100.00
2019-04-20T04:07:01.852Z,116.00
2019-04-20T04:08:10.557Z,132.00
2019-04-20T04:09:12.223Z,148.00
2019-04-20T04:10:14.002Z,164.00
2019-04-20T04:11:16.235Z,184.00
2019-04-20T04:12:08.911Z,204.00
2019-04-20T04:12:58.940Z,228.00
2019-04-20T04:13:56.714Z,252.00
2019-04-20T04:14:57.930Z,276.00
2019-04-20T04:16:03.304Z,304.00
2019-04-20T04:17:01.271Z,332.00
2019-04-20T04:18:04.533Z,364.00
2019-04-20T04:19:06.155Z,396.00
2019-04-20T04:20:05.076Z,428.00
2019-04-20T04:21:03.901Z,464.00
2019-04-20T04:22:12.268Z,500.00
2019-04-20T04:24:10.696Z,584.00
2019-04-20T04:25:14.916Z,636.00
2019-04-20T04:26:18.731Z,680.00
2019-04-20T04:27:16.208Z,732.00
2019-04-20T04:28:14.253Z,784.00
2019-04-20T04:29:21.384Z,840.00
2019-04-20T04:30:14.445Z,900.00
2019-04-20T04:31:16.401Z,960.00
2019-04-20T04:32:37.553Z,1028.00
2019-04-20T04:33:44.555Z,1100.00
2019-04-20T04:34:17.393Z,1168.00
2019-04-20T04:35:15.847Z,1244.00
2019-04-20T04:36:13.823Z,1324.00
2019-04-20T04:37:17.238Z,1412.00
2019-04-20T04:38:23.674Z,1504.00
2019-04-20T04:39:21.208Z,1616.00
2019-04-20T04:40:27.813Z,2160.00
2019-04-20T04:41:32.316Z,3356.00
2019-04-20T04:42:22.318Z,4620.00
2019-04-20T04:43:20.554Z,5368.00
2019-04-20T04:44:11.229Z,6000.00
2019-04-20T04:45:04.885Z,6500.00
2019-04-20T04:45:59.529Z,6936.00
2019-04-20T04:47:02.775Z,7744.00
2019-04-20T04:47:59.587Z,8864.00
2019-04-20T04:49:06.829Z,9760.00
2019-04-20T04:50:07.458Z,10400.00
2019-04-20T04:51:03.407Z,10752.00
2019-04-20T04:52:05.623Z,11264.00
2019-04-20T04:53:07.344Z,12512.00
2019-04-20T04:54:10.185Z,13728.00
2019-04-20T04:55:16.168Z,14464.00
2019-04-20T04:56:05.806Z,15168.00
2019-04-20T04:56:58.675Z,15616.00
2019-04-20T04:57:56.422Z,16192.00
2019-04-20T04:58:56.407Z,17504.00
2019-04-20T04:59:57.316Z,17856.00
2019-04-20T05:01:01.360Z,18880.00
2019-04-20T05:01:59.780Z,20480.00
2019-04-20T05:03:01.112Z,20672.00
2019-04-20T05:04:22.751Z,20672.00
2019-04-20T05:05:17.398Z,21184.00
2019-04-20T05:06:12.405Z,22848.00
2019-04-20T05:07:11.693Z,25184.00
2019-04-20T05:08:07.578Z,25728.00
2019-04-20T05:09:03.171Z,24928.00
2019-04-20T05:09:59.107Z,25376.00
2019-04-20T05:10:56.364Z,26208.00
2019-04-20T05:12:03.973Z,27200.00
2019-04-20T05:12:58.837Z,28608.00
2019-04-20T05:14:02.056Z,29792.00
2019-04-20T05:15:07.582Z,29024.00
2019-04-20T05:16:14.698Z,26752.00
2019-04-20T05:17:12.680Z,22464.00
2019-04-20T05:18:20.852Z,26016.00
2019-04-20T05:19:19.354Z,29504.00
2019-04-20T05:20:18.136Z,27968.00
2019-04-20T05:21:15.415Z,26528.00
2019-04-20T05:22:19.362Z,25504.00
2019-04-20T05:23:12.977Z,20672.00
2019-04-20T05:24:15.324Z,22912.00
2019-04-20T05:25:20.373Z,26912.00
2019-04-20T05:26:19.671Z,29216.00
2019-04-20T05:27:19.085Z,31968.00
2019-04-20T05:28:13.049Z,36320.00
2019-04-20T05:29:07.958Z,39968.00
2019-04-20T05:29:59.199Z,40704.00
2019-04-20T05:30:59.917Z,41536.00
2019-04-20T05:32:07.369Z,42208.00
2019-04-20T05:33:06.046Z,43008.00
2019-04-20T05:34:20.169Z,43104.00
2019-04-20T05:35:23.767Z,43168.00
2019-04-20T05:36:19.325Z,43808.00
2019-04-20T05:37:27.445Z,44160.00
2019-04-20T05:38:28.260Z,43936.00
2019-04-20T05:39:22.507Z,34976.00
2019-04-20T05:40:22.713Z,35456.00
2019-04-20T05:41:20.160Z,43904.00
2019-04-20T05:42:24.584Z,46560.00
2019-04-20T05:43:17.943Z,44160.00
2019-04-20T05:44:12.689Z,31712.00
2019-04-20T05:45:16.714Z,22336.00
2019-04-20T05:46:21.193Z,30176.00
2019-04-20T05:47:19.555Z,33056.00
2019-04-20T05:48:11.924Z,32256.00
2019-04-20T05:49:23.593Z,29824.00
2019-04-20T05:50:18.548Z,31712.00
2019-04-20T05:51:25.521Z,37824.00
2019-04-20T05:52:31.734Z,36320.00
2019-04-20T05:53:20.250Z,27200.00
2019-04-20T05:54:18.971Z,23072.00
2019-04-20T05:55:21.006Z,25760.00
2019-04-20T05:56:17.295Z,34816.00
2019-04-20T05:57:25.430Z,35552.00
2019-04-20T05:58:24.541Z,34688.00
2019-04-20T05:59:14.974Z,30240.00
2019-04-20T06:00:20.220Z,28448.00
2019-04-20T06:01:22.942Z,31808.00
2019-04-20T06:02:26.237Z,39040.00
2019-04-20T06:04:17.272Z,58304.00
2019-04-20T06:05:24.068Z,54400.00
2019-04-20T06:06:16.825Z,32096.00
2019-04-20T06:07:21.576Z,19584.00
2019-04-20T06:08:30.366Z,19072.00
2019-04-20T06:09:22.750Z,19040.00
2019-04-20T06:10:20.819Z,18208.00
2019-04-20T06:11:21.706Z,17024.00
2019-04-20T06:12:19.899Z,16576.00
2019-04-20T06:13:15.039Z,16896.00
2019-04-20T06:14:09.099Z,15680.00
2019-04-20T06:15:12.734Z,13856.00
2019-04-20T06:16:15.743Z,12640.00
2019-04-20T06:17:21.073Z,13032.00
2019-04-20T06:18:13.272Z,13476.00
2019-04-20T06:19:29.817Z,12596.00
2019-04-20T06:20:19.421Z,11816.00
2019-04-20T06:21:27.671Z,11748.00
2019-04-20T06:22:27.218Z,12948.00
2019-04-20T06:23:24.597Z,15296.00
2019-04-20T06:24:26.765Z,17344.00
2019-04-20T06:26:40.152Z,18560.00
2019-04-20T06:27:16.418Z,18016.00
2019-04-20T06:28:15.649Z,21440.00
2019-04-20T06:29:16.335Z,33024.00
2019-04-20T06:30:13.768Z,42720.00
2019-04-20T06:31:19.131Z,41728.00
2019-04-20T06:32:27.165Z,39328.00
2019-04-20T06:33:24.538Z,28992.00
2019-04-20T06:35:33.577Z,28672.00
2019-04-20T06:36:38.631Z,33504.00
2019-04-20T06:37:18.439Z,38432.00
2019-04-20T06:38:35.318Z,38368.00
2019-04-20T06:39:19.983Z,36800.00
2019-04-20T06:40:36.463Z,37024.00
2019-04-20T06:41:31.801Z,39264.00
2019-04-20T06:42:33.623Z,41440.00
2019-04-20T06:43:19.238Z,35680.00
2019-04-20T06:44:26.727Z,34176.00
2019-04-20T06:45:22.631Z,41024.00
2019-04-20T06:46:33.432Z,39616.00
2019-04-20T06:47:24.651Z,36800.00
2019-04-20T06:48:21.468Z,34816.00
2019-04-20T06:49:27.450Z,32960.00
2019-04-20T06:50:18.487Z,32320.00
2019-04-20T06:51:22.358Z,32832.00
2019-04-20T06:52:26.157Z,32832.00
2019-04-20T06:53:28.533Z,32512.00
2019-04-20T06:54:10.370Z,32032.00
2019-04-20T06:55:15.716Z,32320.00
2019-04-20T06:56:25.192Z,32704.00
2019-04-20T06:57:22.094Z,32224.00
2019-04-20T06:58:33.715Z,31744.00
2019-04-20T06:59:29.042Z,30976.00
2019-04-20T07:00:42.034Z,30880.00
2019-04-20T07:01:23.574Z,31840.00
2019-04-20T07:02:21.879Z,31968.00
2019-04-20T07:03:30.937Z,31392.00
2019-04-20T07:05:18.954Z,31296.00
2019-04-20T07:06:34.899Z,32160.00
2019-04-20T07:07:18.469Z,32928.00
2019-04-20T07:08:33.079Z,33952.00
2019-04-20T07:09:27.188Z,36032.00
2019-04-20T07:11:18.813Z,41408.00
2019-04-20T07:12:17.399Z,46624.00
2019-04-20T07:13:13.116Z,51360.00
2019-04-20T07:14:02.904Z,55360.00
2019-04-20T07:15:17.800Z,56192.00
2019-04-20T07:16:21.399Z,55712.00
2019-04-20T07:17:29.727Z,62720.00
2019-04-20T07:18:17.189Z,82016.00
2019-04-20T07:19:18.977Z,98400.00
2019-04-20T07:20:18.426Z,95584.00
2019-04-20T07:21:28.769Z,75104.00
2019-04-20T07:22:33.604Z,63104.00
2019-04-20T07:23:26.608Z,41024.00
2019-04-20T07:24:25.214Z,36832.00
2019-04-20T07:25:20.257Z,36576.00
2019-04-20T07:26:25.454Z,31488.00
2019-04-20T07:27:19.776Z,28032.00
2019-04-20T07:28:24.254Z,25504.00
2019-04-20T07:29:24.036Z,23712.00
2019-04-20T07:30:19.454Z,22720.00
2019-04-20T07:31:18.816Z,22688.00
2019-04-20T07:32:10.299Z,22112.00
2019-04-20T07:33:24.381Z,21152.00
2019-04-20T07:34:23.405Z,20160.00
2019-04-20T07:35:22.101Z,19616.00
2019-04-20T07:36:24.490Z,18720.00
2019-04-20T07:37:51.378Z,18400.00
2019-04-20T07:39:26.437Z,17664.00
2019-04-20T07:40:28.703Z,18240.00
2019-04-20T07:41:25.946Z,16864.00
2019-04-20T07:42:24.263Z,18176.00
2019-04-20T07:43:14.683Z,18176.00
2019-04-20T07:44:29.903Z,17984.00
2019-04-20T07:46:34.604Z,16416.00
2019-04-20T07:47:28.187Z,16064.00
2019-04-20T07:48:31.078Z,15936.00
2019-04-20T07:49:18.156Z,15872.00
2019-04-20T07:50:13.012Z,16064.00
2019-04-20T07:51:06.614Z,15968.00
2019-04-20T07:51:57.663Z,15872.00
2019-04-20T07:53:14.662Z,16064.00
2019-04-20T07:54:24.751Z,15840.00
2019-04-20T07:55:40.014Z,15648.00
2019-04-20T07:56:17.738Z,15680.00
2019-04-20T07:57:14.760Z,15584.00
2019-04-20T07:58:10.132Z,15072.00
2019-04-20T07:59:11.622Z,15008.00
2019-04-20T08:00:21.413Z,14784.00
2019-04-20T08:01:23.844Z,14528.00
2019-04-20T08:02:23.536Z,14144.00
2019-04-20T08:03:23.693Z,14124.00
2019-04-20T08:04:17.451Z,14116.00
2019-04-20T08:05:10.661Z,13900.00
2019-04-20T08:06:05.362Z,13796.00
2019-04-20T08:07:02.105Z,14032.00
2019-04-20T08:08:14.899Z,13856.00
2019-04-20T08:09:11.606Z,14000.00
2019-04-20T08:10:02.884Z,14056.00
2019-04-20T08:11:13.967Z,14008.00
2019-04-20T08:12:22.149Z,13980.00
2019-04-20T08:13:25.731Z,13940.00
2019-04-20T08:14:24.121Z,13656.00
2019-04-20T08:15:29.980Z,13272.00
2019-04-20T08:16:23.132Z,12964.00
2019-04-20T08:17:40.420Z,12824.00
2019-04-20T08:18:21.270Z,12716.00
2019-04-20T08:19:16.329Z,12604.00
2019-04-20T08:20:17.317Z,12500.00
2019-04-20T08:21:23.298Z,12412.00
2019-04-20T08:22:19.809Z,12264.00
2019-04-20T08:23:17.156Z,12168.00
2019-04-20T08:24:17.710Z,12000.00
2019-04-20T08:25:08.927Z,11804.00
2019-04-20T08:26:06.657Z,11680.00
2019-04-20T08:27:02.716Z,11512.00
2019-04-20T08:27:57.317Z,11384.00
2019-04-20T08:29:01.581Z,11224.00
2019-04-20T08:30:12.228Z,11196.00
2019-04-20T08:31:15.267Z,11148.00
2019-04-20T08:32:17.943Z,11032.00
2019-04-20T08:33:13.329Z,10888.00
2019-04-20T08:34:35.355Z,10788.00
2019-04-20T08:35:22.845Z,10656.00
2019-04-20T08:36:16.847Z,10560.00
2019-04-20T08:37:18.171Z,10480.00
2019-04-20T08:40:24.335Z,10028.00
2019-04-20T08:41:12.886Z,9864.00
2019-04-20T08:42:16.388Z,9772.00
2019-04-20T08:43:33.623Z,9636.00
2019-04-20T08:44:41.373Z,9584.00
2019-04-20T08:45:19.345Z,9548.00
2019-04-20T08:46:13.501Z,9484.00
2019-04-20T08:47:27.186Z,9420.00
2019-04-20T08:48:23.176Z,9352.00
2019-04-20T08:49:27.955Z,9424.00
2019-04-20T08:50:19.817Z,9468.00
2019-04-20T08:51:22.679Z,9476.00
2019-04-20T08:52:41.407Z,9468.00
2019-04-20T08:53:20.664Z,9508.00
2019-04-20T08:54:19.277Z,9520.00
2019-04-20T08:55:16.736Z,9460.00
2019-04-20T08:56:12.736Z,9424.00
2019-04-20T08:57:00.351Z,9404.00
2019-04-20T08:57:57.136Z,9372.00
2019-04-20T08:58:57.309Z,9272.00
2019-04-20T08:59:56.043Z,9128.00
2019-04-20T09:01:00.185Z,8944.00
2019-04-20T09:01:58.066Z,8804.00
2019-04-20T09:03:06.927Z,8736.00
2019-04-20T09:04:06.596Z,8648.00
2019-04-20T09:05:03.209Z,8588.00
2019-04-20T09:06:05.553Z,8576.00
2019-04-20T09:07:06.441Z,8576.00
2019-04-20T09:08:06.869Z,8548.00
2019-04-20T09:09:22.476Z,8560.00
2019-04-20T09:10:25.637Z,8580.00
2019-04-20T09:11:16.862Z,8512.00
2019-04-20T09:12:18.015Z,8516.00
2019-04-20T09:13:08.476Z,8572.00
2019-04-20T09:14:00.169Z,8592.00
2019-04-20T09:14:57.413Z,8576.00
2019-04-20T09:15:55.638Z,8544.00
2019-04-20T09:16:59.761Z,8504.00
2019-04-20T09:18:00.982Z,8524.00
2019-04-20T09:19:03.552Z,8492.00
2019-04-20T09:20:06.312Z,8404.00
2019-04-20T09:21:03.379Z,8388.00
2019-04-20T09:22:03.218Z,8392.00
2019-04-20T09:23:13.482Z,8320.00
2019-04-20T09:24:22.787Z,8252.00
2019-04-20T09:25:37.649Z,8184.00
2019-04-20T09:26:16.073Z,8132.00
2019-04-20T09:27:08.740Z,8092.00
2019-04-20T09:28:07.425Z,8060.00
2019-04-20T09:29:12.748Z,8016.00
2019-04-20T09:30:13.644Z,7920.00
2019-04-20T09:31:12.231Z,7868.00
2019-04-20T09:32:18.964Z,7876.00
2019-04-20T09:33:15.235Z,7804.00
2019-04-20T09:34:13.331Z,7720.00
2019-04-20T09:35:13.659Z,7628.00
2019-04-20T09:36:10.340Z,7552.00
2019-04-20T09:37:22.361Z,7484.00
2019-04-20T09:38:10.908Z,7440.00
2019-04-20T09:39:10.377Z,7312.00
2019-04-20T09:40:16.258Z,7220.00
2019-04-20T09:41:25.278Z,7184.00
2019-04-20T09:42:01.481Z,7128.00
2019-04-20T09:42:56.011Z,7100.00
2019-04-20T09:43:55.871Z,7096.00
2019-04-20T09:44:58.057Z,7016.00
2019-04-20T09:46:02.036Z,6944.00
2019-04-20T09:46:59.823Z,6948.00
2019-04-20T09:47:58.369Z,6908.00
2019-04-20T09:49:00.722Z,6824.00
2019-04-20T09:50:09.002Z,6768.00
2019-04-20T09:51:16.858Z,6752.00
2019-04-20T09:52:12.200Z,6776.00
2019-04-20T09:53:10.023Z,6844.00
2019-04-20T09:54:17.451Z,6928.00
2019-04-20T09:55:12.118Z,6924.00
2019-04-20T09:56:18.131Z,6940.00
2019-04-20T09:57:13.321Z,6936.00
2019-04-20T09:58:09.756Z,6852.00
2019-04-20T09:59:18.905Z,6836.00
2019-04-20T10:00:13.382Z,6816.00
2019-04-20T10:01:11.204Z,6876.00
2019-04-20T10:02:06.633Z,6900.00
2019-04-20T10:02:57.915Z,6784.00
2019-04-20T10:03:54.805Z,6704.00
2019-04-20T10:04:55.604Z,6676.00
2019-04-20T10:05:55.934Z,6652.00
2019-04-20T10:06:55.221Z,6684.00
2019-04-20T10:07:59.874Z,6732.00
2019-04-20T10:09:00.071Z,6712.00
2019-04-20T10:09:57.869Z,6708.00
2019-04-20T10:10:56.036Z,6748.00
2019-04-20T10:11:55.740Z,6744.00
2019-04-20T10:12:56.280Z,6696.00
2019-04-20T10:13:54.692Z,6700.00
2019-04-20T10:14:58.488Z,6720.00
2019-04-20T10:15:57.713Z,6736.00
2019-04-20T10:16:55.846Z,6672.00
2019-04-20T10:17:56.026Z,6684.00
2019-04-20T10:18:55.265Z,6792.00
2019-04-20T10:19:55.718Z,6804.00
2019-04-20T10:20:57.940Z,6808.00
2019-04-20T10:21:57.279Z,6840.00
2019-04-20T10:22:56.334Z,6748.00
2019-04-20T10:23:56.597Z,6732.00
2019-04-20T10:24:57.137Z,6888.00
2019-04-20T10:25:54.592Z,6820.00
2019-04-20T10:26:54.671Z,6720.00
2019-04-20T10:27:55.830Z,6644.00
2019-04-20T10:28:55.255Z,6656.00
2019-04-20T10:29:55.624Z,6704.00
2019-04-20T10:30:54.795Z,6856.00
2019-04-20T10:31:58.724Z,6912.00
2019-04-20T10:32:57.482Z,6988.00
2019-04-20T10:33:55.716Z,7004.00
2019-04-20T10:34:56.752Z,7072.00
2019-04-20T10:35:54.521Z,7100.00
2019-04-20T10:36:55.527Z,7084.00
2019-04-20T10:37:55.665Z,7044.00
2019-04-20T10:38:54.883Z,6828.00
2019-04-20T10:39:56.573Z,6680.00
2019-04-20T10:41:04.408Z,6748.00
2019-04-20T10:42:00.489Z,6808.00
2019-04-20T10:42:59.530Z,6872.00
2019-04-20T10:43:54.514Z,6936.00
2019-04-20T10:44:57.061Z,6948.00
2019-04-20T10:45:55.475Z,6916.00
2019-04-20T10:46:54.480Z,6868.00
2019-04-20T10:47:54.971Z,6852.00
2019-04-20T10:48:56.079Z,6788.00
2019-04-20T10:49:56.513Z,6776.00
2019-04-20T10:50:54.832Z,6628.00
2019-04-20T10:51:55.803Z,6532.00
2019-04-20T10:52:56.074Z,6556.00
2019-04-20T10:53:56.141Z,6512.00
2019-04-20T10:54:54.584Z,6496.00
2019-04-20T10:55:55.613Z,6524.00
2019-04-20T10:56:55.436Z,6496.00
2019-04-20T10:57:55.596Z,6408.00
2019-04-20T10:58:54.357Z,6504.00
2019-04-20T10:59:55.388Z,6476.00
2019-04-20T11:00:55.631Z,6288.00
2019-04-20T11:01:54.351Z,6212.00
2019-04-20T11:02:55.410Z,6244.00
2019-04-20T11:03:54.549Z,6256.00
2019-04-20T11:04:56.872Z,6256.00
2019-04-20T11:05:54.402Z,6088.00
2019-04-20T11:06:54.527Z,6024.00
2019-04-20T11:07:56.730Z,6088.00
2019-04-20T11:08:54.318Z,6148.00
2019-04-20T11:10:04.371Z,6116.00
2019-04-20T11:11:08.302Z,6040.00
2019-04-20T11:11:56.636Z,5980.00
2019-04-20T11:12:54.305Z,5928.00
2019-04-20T11:13:55.359Z,5924.00
2019-04-20T11:14:54.552Z,5904.00
2019-04-20T11:15:56.597Z,5896.00
2019-04-20T11:16:56.132Z,5852.00
2019-04-20T11:17:55.369Z,5784.00
2019-04-20T11:18:55.492Z,5796.00
2019-04-20T11:19:55.008Z,5844.00
2019-04-20T11:20:55.323Z,5836.00
2019-04-20T11:21:54.395Z,5852.00
2019-04-20T11:22:54.314Z,5776.00
2019-04-20T11:23:54.301Z,5836.00
2019-04-20T11:24:56.435Z,5860.00
2019-04-20T11:25:54.220Z,5840.00
2019-04-20T11:26:54.233Z,5948.00
2019-04-20T11:27:54.422Z,6056.00
2019-04-20T11:28:55.900Z,6004.00
2019-04-20T11:29:54.191Z,5828.00
2019-04-20T11:30:54.330Z,5948.00
2019-04-20T11:31:56.496Z,5752.00
2019-04-20T11:32:56.028Z,5812.00
2019-04-20T11:33:54.242Z,5852.00
2019-04-20T11:34:56.457Z,5736.00
2019-04-20T11:35:55.152Z,5624.00
2019-04-20T11:36:55.025Z,5612.00
2019-04-20T11:37:55.358Z,5608.00
2019-04-20T11:38:54.425Z,5608.00
2019-04-20T11:39:55.107Z,5604.00
2019-04-20T11:41:04.185Z,5564.00
2019-04-20T11:41:56.111Z,5584.00
2019-04-20T11:42:55.290Z,5568.00
2019-04-20T11:43:54.096Z,5568.00
2019-04-20T11:44:54.904Z,5624.00
2019-04-20T11:45:54.483Z,5584.00
2019-04-20T11:46:55.078Z,5632.00
2019-04-20T11:47:54.084Z,5596.00
2019-04-20T11:48:55.321Z,5552.00
2019-04-20T11:49:55.395Z,5520.00
2019-04-20T11:50:54.027Z,5564.00
2019-04-20T11:51:55.332Z,5560.00
2019-04-20T11:52:55.198Z,5528.00
2019-04-20T11:53:54.388Z,5588.00
2019-04-20T11:54:54.999Z,5504.00
2019-04-20T11:55:54.219Z,5516.00
2019-04-20T11:56:55.363Z,5568.00
2019-04-20T11:57:54.214Z,5548.00
2019-04-20T11:58:54.996Z,5572.00
2019-04-20T11:59:55.001Z,5596.00
2019-04-20T12:01:03.193Z,5576.00
2019-04-20T12:02:01.051Z,5648.00
2019-04-20T12:02:58.641Z,5684.00
2019-04-20T12:04:04.147Z,5780.00
2019-04-20T12:05:08.835Z,5432.00
2019-04-20T12:05:59.397Z,5364.00
2019-04-20T12:06:57.064Z,5384.00
2019-04-20T12:07:55.436Z,5444.00
2019-04-20T12:08:54.990Z,5560.00
2019-04-20T12:09:58.545Z,5624.00
2019-04-20T12:10:59.850Z,5576.00
2019-04-20T12:12:08.243Z,5448.00
2019-04-20T12:12:56.251Z,5400.00
2019-04-20T12:13:54.913Z,5248.00
2019-04-20T12:14:54.782Z,5224.00
2019-04-20T12:15:53.994Z,5236.00
2019-04-20T12:16:55.471Z,5256.00
2019-04-20T12:17:53.938Z,5268.00
2019-04-20T12:18:54.657Z,5240.00
2019-04-20T12:19:53.856Z,5184.00
2019-04-20T12:20:54.834Z,5172.00
2019-04-20T12:21:53.944Z,5180.00
2019-04-20T12:22:54.872Z,5176.00
2019-04-20T12:23:54.121Z,5148.00
2019-04-20T12:24:56.143Z,5104.00
2019-04-20T12:25:54.390Z,5104.00
2019-04-20T12:26:54.583Z,5108.00
2019-04-20T12:27:57.022Z,5096.00
2019-04-20T12:28:55.879Z,5068.00
2019-04-20T12:29:54.053Z,5052.00
2019-04-20T12:30:58.344Z,5072.00
2019-04-20T12:31:59.181Z,5064.00
2019-04-20T12:32:59.760Z,5044.00
2019-04-20T12:33:54.868Z,5008.00
2019-04-20T12:34:56.047Z,5016.00
2019-04-20T12:35:54.212Z,5016.00
2019-04-20T12:36:55.281Z,5020.00
2019-04-20T12:37:54.698Z,5032.00
2019-04-20T12:38:54.929Z,5068.00
2019-04-20T12:39:55.233Z,5036.00
2019-04-20T12:40:53.738Z,4996.00
2019-04-20T12:41:58.383Z,4976.00
2019-04-20T12:42:57.101Z,4952.00
2019-04-20T12:43:56.033Z,4960.00
2019-04-20T12:44:53.692Z,4936.00
2019-04-20T12:45:53.873Z,4936.00
2019-04-20T12:46:55.918Z,4924.00
2019-04-20T12:47:53.694Z,4904.00
2019-04-20T12:48:53.673Z,4872.00
2019-04-20T12:49:53.812Z,4864.00
2019-04-20T12:50:55.438Z,4880.00
2019-04-20T12:51:58.004Z,4884.00
2019-04-20T12:52:56.699Z,4872.00
2019-04-20T12:53:54.665Z,4856.00
2019-04-20T12:54:54.535Z,4888.00
2019-04-20T12:55:54.760Z,4880.00
2019-04-20T12:56:53.638Z,4836.00
2019-04-20T12:57:54.499Z,4816.00
2019-04-20T12:58:53.693Z,4848.00
2019-04-20T12:59:54.636Z,4812.00
2019-04-20T13:00:54.381Z,4800.00
2019-04-20T13:01:53.607Z,4808.00
2019-04-20T13:02:53.760Z,4824.00
2019-04-20T13:03:55.296Z,4824.00
2019-04-20T13:04:53.668Z,4780.00
2019-04-20T13:05:54.287Z,4740.00
2019-04-20T13:06:55.365Z,4744.00
2019-04-20T13:07:58.961Z,4744.00
2019-04-20T13:08:58.807Z,4732.00
2019-04-20T13:09:56.918Z,4744.00
2019-04-20T13:10:54.866Z,4712.00
2019-04-20T13:11:59.431Z,4652.00
2019-04-20T13:12:56.547Z,4656.00
2019-04-20T13:13:54.537Z,4684.00
2019-04-20T13:14:53.501Z,4692.00
2019-04-20T13:15:56.360Z,4636.00
2019-04-20T13:16:55.076Z,4672.00